sensor_id;sensor_type;location;lat;lon;timestamp;P1;durP1;ratioP1;P2;durP2;ratioP2
18072;SDS011;9161;47.348;9.648;2023-12-20T00:02:58;9.77;;;4.87;;
18072;SDS011;9161;47.348;9.648;2023-12-20T00:08:00;10.13;;;4.73;;
18072;SDS011;9161;47.348;9.648;2023-12-20T00:13:04;10.77;;;5.53;;
18072;SDS011;9161;47.348;9.648;2023-12-20T00:18:07;14.37;;;5.30;;
18072;SDS011;9161;47.348;9.648;2023-12-20T00:23:09;7.53;;;4.00;;
18072;SDS011;9161;47.348;9.648;2023-12-20T00:28:14;10.13;;;4.50;;
18072;SDS011;9161;47.348;9.648;2023-12-20T00:33:16;10.07;;;4.47;;
18072;SDS011;9161;47.348;9.648;2023-12-20T00:38:18;10.27;;;4.83;;
18072;SDS011;9161;47.348;9.648;2023-12-20T00:43:22;10.17;;;3.87;;
18072;SDS011;9161;47.348;9.648;2023-12-20T00:48:24;9.53;;;4.03;;
18072;SDS011;9161;47.348;9.648;2023-12-20T00:53:27;9.20;;;4.20;;
18072;SDS011;9161;47.348;9.648;2023-12-20T00:58:31;7.70;;;3.77;;
18072;SDS011;9161;47.348;9.648;2023-12-20T01:03:33;9.97;;;4.37;;
18072;SDS011;9161;47.348;9.648;2023-12-20T01:08:37;11.73;;;4.80;;
18072;SDS011;9161;47.348;9.648;2023-12-20T01:13:40;10.53;;;4.90;;
18072;SDS011;9161;47.348;9.648;2023-12-20T01:18:42;7.63;;;3.60;;
18072;SDS011;9161;47.348;9.648;2023-12-20T01:23:45;9.13;;;4.37;;
18072;SDS011;9161;47.348;9.648;2023-12-20T01:28:50;9.73;;;4.97;;
18072;SDS011;9161;47.348;9.648;2023-12-20T01:33:52;9.37;;;3.93;;
18072;SDS011;9161;47.348;9.648;2023-12-20T01:38:56;9.57;;;4.40;;
18072;SDS011;9161;47.348;9.648;2023-12-20T01:43:59;13.67;;;5.63;;
18072;SDS011;9161;47.348;9.648;2023-12-20T01:49:02;11.77;;;5.27;;
18072;SDS011;9161;47.348;9.648;2023-12-20T01:54:04;11.63;;;5.43;;
18072;SDS011;9161;47.348;9.648;2023-12-20T01:59:08;16.77;;;6.70;;
18072;SDS011;9161;47.348;9.648;2023-12-20T02:04:11;12.37;;;4.83;;
18072;SDS011;9161;47.348;9.648;2023-12-20T02:09:13;11.70;;;5.23;;
18072;SDS011;9161;47.348;9.648;2023-12-20T02:14:18;11.90;;;5.13;;
18072;SDS011;9161;47.348;9.648;2023-12-20T02:19:21;10.33;;;5.17;;
18072;SDS011;9161;47.348;9.648;2023-12-20T02:24:25;10.37;;;5.30;;
18072;SDS011;9161;47.348;9.648;2023-12-20T02:29:27;13.30;;;5.00;;
18072;SDS011;9161;47.348;9.648;2023-12-20T02:34:29;13.57;;;5.90;;
18072;SDS011;9161;47.348;9.648;2023-12-20T02:39:33;8.50;;;4.40;;
18072;SDS011;9161;47.348;9.648;2023-12-20T02:44:35;11.37;;;5.17;;
18072;SDS011;9161;47.348;9.648;2023-12-20T02:49:38;10.03;;;5.67;;
18072;SDS011;9161;47.348;9.648;2023-12-20T02:54:41;8.37;;;4.53;;
18072;SDS011;9161;47.348;9.648;2023-12-20T02:59:43;11.87;;;5.23;;
18072;SDS011;9161;47.348;9.648;2023-12-20T03:04:46;12.47;;;5.27;;
18072;SDS011;9161;47.348;9.648;2023-12-20T03:09:50;8.60;;;4.43;;
18072;SDS011;9161;47.348;9.648;2023-12-20T03:15:12;9.63;;;4.60;;
18072;SDS011;9161;47.348;9.648;2023-12-20T03:20:14;12.37;;;5.03;;
18072;SDS011;9161;47.348;9.648;2023-12-20T03:25:18;9.77;;;4.97;;
18072;SDS011;9161;47.348;9.648;2023-12-20T03:30:20;9.70;;;4.37;;
18072;SDS011;9161;47.348;9.648;2023-12-20T03:35:22;8.03;;;4.13;;
18072;SDS011;9161;47.348;9.648;2023-12-20T03:40:25;8.13;;;3.83;;
18072;SDS011;9161;47.348;9.648;2023-12-20T03:45:27;7.87;;;4.23;;
18072;SDS011;9161;47.348;9.648;2023-12-20T03:50:29;11.93;;;4.77;;
18072;SDS011;9161;47.348;9.648;2023-12-20T03:55:33;13.80;;;5.53;;
18072;SDS011;9161;47.348;9.648;2023-12-20T04:00:35;9.83;;;4.00;;
18072;SDS011;9161;47.348;9.648;2023-12-20T04:05:37;7.90;;;4.70;;
18072;SDS011;9161;47.348;9.648;2023-12-20T04:10:41;10.17;;;4.60;;
18072;SDS011;9161;47.348;9.648;2023-12-20T04:15:42;9.40;;;5.17;;
18072;SDS011;9161;47.348;9.648;2023-12-20T04:20:44;8.77;;;5.20;;
18072;SDS011;9161;47.348;9.648;2023-12-20T04:25:48;7.70;;;4.03;;
18072;SDS011;9161;47.348;9.648;2023-12-20T04:30:50;11.07;;;4.60;;
18072;SDS011;9161;47.348;9.648;2023-12-20T04:35:52;11.77;;;5.13;;
18072;SDS011;9161;47.348;9.648;2023-12-20T04:40:56;12.83;;;5.30;;
18072;SDS011;9161;47.348;9.648;2023-12-20T04:45:58;19.27;;;5.47;;
18072;SDS011;9161;47.348;9.648;2023-12-20T04:51:00;10.37;;;5.03;;
18072;SDS011;9161;47.348;9.648;2023-12-20T04:56:03;10.57;;;4.80;;
18072;SDS011;9161;47.348;9.648;2023-12-20T05:01:06;9.00;;;4.50;;
18072;SDS011;9161;47.348;9.648;2023-12-20T05:06:08;7.43;;;3.97;;
18072;SDS011;9161;47.348;9.648;2023-12-20T05:11:12;10.90;;;5.07;;
18072;SDS011;9161;47.348;9.648;2023-12-20T05:16:16;9.60;;;4.73;;
18072;SDS011;9161;47.348;9.648;2023-12-20T05:21:19;11.17;;;4.47;;
18072;SDS011;9161;47.348;9.648;2023-12-20T05:26:22;10.43;;;4.90;;
18072;SDS011;9161;47.348;9.648;2023-12-20T05:31:24;11.50;;;4.93;;
18072;SDS011;9161;47.348;9.648;2023-12-20T05:36:26;12.37;;;4.87;;
18072;SDS011;9161;47.348;9.648;2023-12-20T05:41:30;11.93;;;5.07;;
18072;SDS011;9161;47.348;9.648;2023-12-20T05:46:32;8.53;;;4.43;;
18072;SDS011;9161;47.348;9.648;2023-12-20T05:51:34;10.03;;;4.07;;
18072;SDS011;9161;47.348;9.648;2023-12-20T05:56:37;7.53;;;4.33;;
18072;SDS011;9161;47.348;9.648;2023-12-20T06:01:39;17.07;;;6.00;;
18072;SDS011;9161;47.348;9.648;2023-12-20T06:06:42;16.90;;;4.70;;
18072;SDS011;9161;47.348;9.648;2023-12-20T06:11:46;12.50;;;4.47;;
18072;SDS011;9161;47.348;9.648;2023-12-20T06:16:48;9.50;;;4.40;;
18072;SDS011;9161;47.348;9.648;2023-12-20T06:21:50;12.10;;;4.67;;
18072;SDS011;9161;47.348;9.648;2023-12-20T06:26:54;10.20;;;3.87;;
18072;SDS011;9161;47.348;9.648;2023-12-20T06:31:56;10.10;;;4.90;;
18072;SDS011;9161;47.348;9.648;2023-12-20T06:36:58;8.30;;;4.17;;
18072;SDS011;9161;47.348;9.648;2023-12-20T06:42:02;6.97;;;3.87;;
18072;SDS011;9161;47.348;9.648;2023-12-20T06:47:05;8.53;;;3.80;;
18072;SDS011;9161;47.348;9.648;2023-12-20T06:52:07;7.27;;;3.93;;
18072;SDS011;9161;47.348;9.648;2023-12-20T06:57:11;10.73;;;3.93;;
18072;SDS011;9161;47.348;9.648;2023-12-20T07:02:13;7.37;;;3.33;;
18072;SDS011;9161;47.348;9.648;2023-12-20T07:07:16;5.23;;;2.97;;
18072;SDS011;9161;47.348;9.648;2023-12-20T07:12:20;6.73;;;3.20;;
18072;SDS011;9161;47.348;9.648;2023-12-20T07:17:22;6.93;;;3.57;;
18072;SDS011;9161;47.348;9.648;2023-12-20T07:22:24;6.37;;;3.07;;
18072;SDS011;9161;47.348;9.648;2023-12-20T07:27:28;6.37;;;3.37;;
18072;SDS011;9161;47.348;9.648;2023-12-20T07:32:29;6.07;;;2.70;;
18072;SDS011;9161;47.348;9.648;2023-12-20T07:37:32;6.07;;;2.60;;
18072;SDS011;9161;47.348;9.648;2023-12-20T07:42:36;6.73;;;2.63;;
18072;SDS011;9161;47.348;9.648;2023-12-20T07:47:38;10.43;;;2.60;;
18072;SDS011;9161;47.348;9.648;2023-12-20T07:52:41;7.30;;;3.60;;
18072;SDS011;9161;47.348;9.648;2023-12-20T07:57:44;13.00;;;5.43;;
18072;SDS011;9161;47.348;9.648;2023-12-20T08:02:47;18.63;;;6.10;;
18072;SDS011;9161;47.348;9.648;2023-12-20T08:07:50;10.43;;;4.67;;
18072;SDS011;9161;47.348;9.648;2023-12-20T08:12:53;14.97;;;6.83;;
18072;SDS011;9161;47.348;9.648;2023-12-20T08:17:56;16.77;;;6.47;;
18072;SDS011;9161;47.348;9.648;2023-12-20T08:22:58;13.43;;;6.30;;
18072;SDS011;9161;47.348;9.648;2023-12-20T08:28:02;21.07;;;8.00;;
18072;SDS011;9161;47.348;9.648;2023-12-20T08:33:05;12.23;;;6.83;;
18072;SDS011;9161;47.348;9.648;2023-12-20T08:38:11;15.33;;;6.23;;
18072;SDS011;9161;47.348;9.648;2023-12-20T08:43:15;18.30;;;6.63;;
18072;SDS011;9161;47.348;9.648;2023-12-20T08:48:18;15.27;;;6.33;;
18072;SDS011;9161;47.348;9.648;2023-12-20T08:53:20;17.83;;;7.57;;
18072;SDS011;9161;47.348;9.648;2023-12-20T08:58:24;12.87;;;6.53;;
18072;SDS011;9161;47.348;9.648;2023-12-20T09:03:26;17.20;;;7.33;;
18072;SDS011;9161;47.348;9.648;2023-12-20T09:08:29;12.67;;;6.70;;
18072;SDS011;9161;47.348;9.648;2023-12-20T09:13:32;15.50;;;7.43;;
18072;SDS011;9161;47.348;9.648;2023-12-20T09:18:35;25.10;;;7.83;;
18072;SDS011;9161;47.348;9.648;2023-12-20T09:23:37;18.33;;;8.40;;
18072;SDS011;9161;47.348;9.648;2023-12-20T09:28:41;19.20;;;8.33;;
18072;SDS011;9161;47.348;9.648;2023-12-20T09:33:43;16.47;;;7.67;;
18072;SDS011;9161;47.348;9.648;2023-12-20T09:38:46;18.80;;;7.87;;
18072;SDS011;9161;47.348;9.648;2023-12-20T09:43:50;14.13;;;7.13;;
18072;SDS011;9161;47.348;9.648;2023-12-20T09:48:56;13.20;;;7.23;;
18072;SDS011;9161;47.348;9.648;2023-12-20T09:53:58;14.93;;;6.83;;
18072;SDS011;9161;47.348;9.648;2023-12-20T09:59:04;16.57;;;6.63;;
18072;SDS011;9161;47.348;9.648;2023-12-20T10:04:08;14.37;;;5.80;;
18072;SDS011;9161;47.348;9.648;2023-12-20T10:09:28;14.97;;;6.07;;
18072;SDS011;9161;47.348;9.648;2023-12-20T10:14:34;14.37;;;6.53;;
18072;SDS011;9161;47.348;9.648;2023-12-20T10:19:36;15.13;;;5.63;;
18072;SDS011;9161;47.348;9.648;2023-12-20T10:24:39;14.27;;;6.00;;
18072;SDS011;9161;47.348;9.648;2023-12-20T10:29:43;10.17;;;5.40;;
18072;SDS011;9161;47.348;9.648;2023-12-20T10:34:45;13.57;;;5.77;;
18072;SDS011;9161;47.348;9.648;2023-12-20T10:39:48;17.07;;;5.57;;
18072;SDS011;9161;47.348;9.648;2023-12-20T10:44:58;12.07;;;5.07;;
18072;SDS011;9161;47.348;9.648;2023-12-20T10:50:01;10.93;;;5.53;;
18072;SDS011;9161;47.348;9.648;2023-12-20T10:55:07;11.63;;;5.63;;
18072;SDS011;9161;47.348;9.648;2023-12-20T11:00:11;14.90;;;5.30;;
18072;SDS011;9161;47.348;9.648;2023-12-20T11:05:21;10.77;;;5.20;;
18072;SDS011;9161;47.348;9.648;2023-12-20T11:10:31;10.03;;;5.13;;
18072;SDS011;9161;47.348;9.648;2023-12-20T11:15:41;9.37;;;5.03;;
18072;SDS011;9161;47.348;9.648;2023-12-20T11:20:44;12.13;;;5.13;;
18072;SDS011;9161;47.348;9.648;2023-12-20T11:25:47;10.70;;;5.07;;
18072;SDS011;9161;47.348;9.648;2023-12-20T11:30:52;7.30;;;4.73;;
18072;SDS011;9161;47.348;9.648;2023-12-20T11:35:55;9.17;;;4.40;;
18072;SDS011;9161;47.348;9.648;2023-12-20T11:40:58;13.37;;;4.40;;
18072;SDS011;9161;47.348;9.648;2023-12-20T11:46:05;9.63;;;4.77;;
18072;SDS011;9161;47.348;9.648;2023-12-20T11:51:09;9.93;;;5.47;;
18072;SDS011;9161;47.348;9.648;2023-12-20T11:56:11;13.87;;;5.57;;
18072;SDS011;9161;47.348;9.648;2023-12-20T12:01:15;10.07;;;5.03;;
18072;SDS011;9161;47.348;9.648;2023-12-20T12:06:17;10.30;;;5.23;;
18072;SDS011;9161;47.348;9.648;2023-12-20T12:11:20;10.80;;;5.57;;
18072;SDS011;9161;47.348;9.648;2023-12-20T12:16:24;14.37;;;6.03;;
18072;SDS011;9161;47.348;9.648;2023-12-20T12:21:27;16.37;;;6.17;;
18072;SDS011;9161;47.348;9.648;2023-12-20T12:26:33;12.60;;;6.33;;
18072;SDS011;9161;47.348;9.648;2023-12-20T12:31:36;13.90;;;5.87;;
18072;SDS011;9161;47.348;9.648;2023-12-20T12:36:39;13.00;;;4.97;;
18072;SDS011;9161;47.348;9.648;2023-12-20T12:41:41;8.43;;;4.50;;
18072;SDS011;9161;47.348;9.648;2023-12-20T12:46:45;9.53;;;4.13;;
18072;SDS011;9161;47.348;9.648;2023-12-20T12:51:49;6.60;;;3.20;;
18072;SDS011;9161;47.348;9.648;2023-12-20T12:57:00;5.10;;;2.60;;
18072;SDS011;9161;47.348;9.648;2023-12-20T13:02:02;10.47;;;2.77;;
18072;SDS011;9161;47.348;9.648;2023-12-20T13:07:04;5.07;;;2.60;;
18072;SDS011;9161;47.348;9.648;2023-12-20T13:12:09;2.43;;;1.47;;
18072;SDS011;9161;47.348;9.648;2023-12-20T13:17:11;3.27;;;1.70;;
18072;SDS011;9161;47.348;9.648;2023-12-20T13:22:14;2.03;;;1.40;;
18072;SDS011;9161;47.348;9.648;2023-12-20T13:27:17;2.57;;;1.40;;
18072;SDS011;9161;47.348;9.648;2023-12-20T13:32:19;2.30;;;1.10;;
18072;SDS011;9161;47.348;9.648;2023-12-20T13:37:22;5.03;;;1.80;;
18072;SDS011;9161;47.348;9.648;2023-12-20T13:42:26;3.40;;;1.40;;
18072;SDS011;9161;47.348;9.648;2023-12-20T13:47:28;1.80;;;1.20;;
18072;SDS011;9161;47.348;9.648;2023-12-20T13:52:30;1.47;;;0.80;;
18072;SDS011;9161;47.348;9.648;2023-12-20T13:57:39;2.13;;;1.23;;
18072;SDS011;9161;47.348;9.648;2023-12-20T14:02:54;1.83;;;0.87;;
18072;SDS011;9161;47.348;9.648;2023-12-20T14:07:56;2.57;;;1.00;;
18072;SDS011;9161;47.348;9.648;2023-12-20T14:13:00;3.47;;;1.17;;
18072;SDS011;9161;47.348;9.648;2023-12-20T14:18:03;2.90;;;1.03;;
18072;SDS011;9161;47.348;9.648;2023-12-20T14:23:08;1.47;;;1.10;;
18072;SDS011;9161;47.348;9.648;2023-12-20T14:28:12;1.63;;;1.10;;
18072;SDS011;9161;47.348;9.648;2023-12-20T14:33:14;2.00;;;1.13;;
18072;SDS011;9161;47.348;9.648;2023-12-20T14:38:16;1.23;;;0.87;;
18072;SDS011;9161;47.348;9.648;2023-12-20T14:43:21;1.37;;;0.90;;
18072;SDS011;9161;47.348;9.648;2023-12-20T14:48:24;2.50;;;1.10;;
18072;SDS011;9161;47.348;9.648;2023-12-20T14:53:27;2.33;;;1.10;;
18072;SDS011;9161;47.348;9.648;2023-12-20T14:58:30;1.00;;;0.70;;
18072;SDS011;9161;47.348;9.648;2023-12-20T15:03:33;2.50;;;1.13;;
18072;SDS011;9161;47.348;9.648;2023-12-20T15:08:36;1.20;;;0.70;;
18072;SDS011;9161;47.348;9.648;2023-12-20T15:13:39;0.80;;;0.80;;
18072;SDS011;9161;47.348;9.648;2023-12-20T15:18:42;1.07;;;0.80;;
18072;SDS011;9161;47.348;9.648;2023-12-20T15:23:44;1.13;;;0.50;;
18072;SDS011;9161;47.348;9.648;2023-12-20T15:28:54;0.57;;;0.43;;
18072;SDS011;9161;47.348;9.648;2023-12-20T15:33:57;1.77;;;0.93;;
18072;SDS011;9161;47.348;9.648;2023-12-20T15:38:59;2.07;;;0.50;;
18072;SDS011;9161;47.348;9.648;2023-12-20T15:44:02;1.67;;;0.60;;
18072;SDS011;9161;47.348;9.648;2023-12-20T15:49:04;1.37;;;0.50;;
18072;SDS011;9161;47.348;9.648;2023-12-20T15:54:07;0.97;;;0.57;;
18072;SDS011;9161;47.348;9.648;2023-12-20T15:59:10;1.23;;;0.60;;
18072;SDS011;9161;47.348;9.648;2023-12-20T16:04:12;1.20;;;0.50;;
18072;SDS011;9161;47.348;9.648;2023-12-20T16:09:14;2.67;;;0.67;;
18072;SDS011;9161;47.348;9.648;2023-12-20T16:14:17;4.77;;;1.27;;
18072;SDS011;9161;47.348;9.648;2023-12-20T16:19:20;4.87;;;1.90;;
18072;SDS011;9161;47.348;9.648;2023-12-20T16:24:23;12.87;;;4.27;;
18072;SDS011;9161;47.348;9.648;2023-12-20T16:29:27;4.80;;;1.43;;
18072;SDS011;9161;47.348;9.648;2023-12-20T16:34:28;4.20;;;2.00;;
18072;SDS011;9161;47.348;9.648;2023-12-20T16:39:31;3.47;;;1.57;;
18072;SDS011;9161;47.348;9.648;2023-12-20T16:44:35;1.00;;;0.50;;
18072;SDS011;9161;47.348;9.648;2023-12-20T16:49:37;2.10;;;1.20;;
18072;SDS011;9161;47.348;9.648;2023-12-20T16:54:39;2.00;;;1.03;;
18072;SDS011;9161;47.348;9.648;2023-12-20T16:59:43;1.47;;;0.73;;
18072;SDS011;9161;47.348;9.648;2023-12-20T17:04:46;4.07;;;1.13;;
18072;SDS011;9161;47.348;9.648;2023-12-20T17:09:49;0.83;;;0.53;;
18072;SDS011;9161;47.348;9.648;2023-12-20T17:14:53;2.37;;;0.67;;
18072;SDS011;9161;47.348;9.648;2023-12-20T17:19:56;5.37;;;2.20;;
18072;SDS011;9161;47.348;9.648;2023-12-20T17:24:58;1.90;;;0.80;;
18072;SDS011;9161;47.348;9.648;2023-12-20T17:30:02;2.60;;;0.80;;
18072;SDS011;9161;47.348;9.648;2023-12-20T17:35:06;1.43;;;0.80;;
18072;SDS011;9161;47.348;9.648;2023-12-20T17:40:08;1.97;;;1.00;;
18072;SDS011;9161;47.348;9.648;2023-12-20T17:45:13;2.43;;;0.90;;
18072;SDS011;9161;47.348;9.648;2023-12-20T17:50:17;3.57;;;0.70;;
18072;SDS011;9161;47.348;9.648;2023-12-20T17:55:21;2.20;;;0.80;;
18072;SDS011;9161;47.348;9.648;2023-12-20T18:00:28;1.40;;;0.80;;
18072;SDS011;9161;47.348;9.648;2023-12-20T18:05:35;1.17;;;0.53;;
18072;SDS011;9161;47.348;9.648;2023-12-20T18:10:38;4.37;;;0.93;;
18072;SDS011;9161;47.348;9.648;2023-12-20T18:15:44;2.83;;;0.80;;
18072;SDS011;9161;47.348;9.648;2023-12-20T18:20:48;7.80;;;1.20;;
18072;SDS011;9161;47.348;9.648;2023-12-20T18:25:52;1.07;;;0.70;;
18072;SDS011;9161;47.348;9.648;2023-12-20T18:30:58;4.57;;;0.83;;
18072;SDS011;9161;47.348;9.648;2023-12-20T18:36:03;5.83;;;1.87;;
18072;SDS011;9161;47.348;9.648;2023-12-20T18:41:08;2.90;;;1.10;;
18072;SDS011;9161;47.348;9.648;2023-12-20T18:46:17;2.80;;;1.10;;
18072;SDS011;9161;47.348;9.648;2023-12-20T18:51:24;3.00;;;0.80;;
18072;SDS011;9161;47.348;9.648;2023-12-20T18:56:28;2.50;;;0.97;;
18072;SDS011;9161;47.348;9.648;2023-12-20T19:01:34;1.60;;;0.87;;
18072;SDS011;9161;47.348;9.648;2023-12-20T19:06:39;1.43;;;0.73;;
18072;SDS011;9161;47.348;9.648;2023-12-20T19:11:45;2.93;;;1.10;;
18072;SDS011;9161;47.348;9.648;2023-12-20T19:16:51;4.13;;;1.30;;
18072;SDS011;9161;47.348;9.648;2023-12-20T19:21:56;5.60;;;1.30;;
18072;SDS011;9161;47.348;9.648;2023-12-20T19:27:02;4.83;;;1.00;;
18072;SDS011;9161;47.348;9.648;2023-12-20T19:32:09;5.73;;;1.87;;
18072;SDS011;9161;47.348;9.648;2023-12-20T19:37:14;2.23;;;0.80;;
18072;SDS011;9161;47.348;9.648;2023-12-20T19:42:19;3.20;;;1.40;;
18072;SDS011;9161;47.348;9.648;2023-12-20T19:47:29;1.00;;;0.80;;
18072;SDS011;9161;47.348;9.648;2023-12-20T19:52:36;5.20;;;0.90;;
18072;SDS011;9161;47.348;9.648;2023-12-20T19:57:41;2.90;;;0.80;;
18072;SDS011;9161;47.348;9.648;2023-12-20T20:02:49;2.50;;;0.90;;
18072;SDS011;9161;47.348;9.648;2023-12-20T20:07:56;2.67;;;1.03;;
18072;SDS011;9161;47.348;9.648;2023-12-20T20:13:17;6.73;;;1.10;;
18072;SDS011;9161;47.348;9.648;2023-12-20T20:24:42;3.93;;;0.70;;
18072;SDS011;9161;47.348;9.648;2023-12-20T20:30:17;4.10;;;1.20;;
18072;SDS011;9161;47.348;9.648;2023-12-20T20:36:17;6.10;;;1.80;;
18072;SDS011;9161;47.348;9.648;2023-12-20T20:42:12;3.97;;;1.60;;
18072;SDS011;9161;47.348;9.648;2023-12-20T20:48:06;6.13;;;2.00;;
18072;SDS011;9161;47.348;9.648;2023-12-20T20:53:46;3.20;;;1.90;;
18072;SDS011;9161;47.348;9.648;2023-12-20T20:59:07;4.43;;;1.60;;
18072;SDS011;9161;47.348;9.648;2023-12-20T21:04:12;3.60;;;1.50;;
18072;SDS011;9161;47.348;9.648;2023-12-20T21:09:17;3.60;;;1.60;;
18072;SDS011;9161;47.348;9.648;2023-12-20T21:14:20;5.53;;;1.73;;
18072;SDS011;9161;47.348;9.648;2023-12-20T21:19:24;1.20;;;0.77;;
18072;SDS011;9161;47.348;9.648;2023-12-20T21:24:29;2.37;;;0.90;;
18072;SDS011;9161;47.348;9.648;2023-12-20T21:29:35;2.33;;;0.90;;
18072;SDS011;9161;47.348;9.648;2023-12-20T21:34:37;2.43;;;1.00;;
18072;SDS011;9161;47.348;9.648;2023-12-20T21:39:41;5.73;;;1.00;;
18072;SDS011;9161;47.348;9.648;2023-12-20T21:44:43;3.57;;;1.33;;
18072;SDS011;9161;47.348;9.648;2023-12-20T21:49:46;2.07;;;1.00;;
18072;SDS011;9161;47.348;9.648;2023-12-20T21:54:49;4.57;;;1.30;;
18072;SDS011;9161;47.348;9.648;2023-12-20T21:59:52;3.53;;;1.30;;
18072;SDS011;9161;47.348;9.648;2023-12-20T22:04:54;4.73;;;1.67;;
18072;SDS011;9161;47.348;9.648;2023-12-20T22:09:58;2.10;;;1.30;;
18072;SDS011;9161;47.348;9.648;2023-12-20T22:15:01;2.67;;;1.50;;
18072;SDS011;9161;47.348;9.648;2023-12-20T22:20:04;2.70;;;1.30;;
18072;SDS011;9161;47.348;9.648;2023-12-20T22:25:08;3.07;;;1.00;;
18072;SDS011;9161;47.348;9.648;2023-12-20T22:30:11;1.47;;;0.83;;
18072;SDS011;9161;47.348;9.648;2023-12-20T22:35:13;2.13;;;1.40;;
18072;SDS011;9161;47.348;9.648;2023-12-20T22:40:17;3.20;;;0.90;;
18072;SDS011;9161;47.348;9.648;2023-12-20T22:45:20;1.40;;;1.10;;
18072;SDS011;9161;47.348;9.648;2023-12-20T22:50:22;3.07;;;0.87;;
18072;SDS011;9161;47.348;9.648;2023-12-20T22:55:27;1.60;;;1.07;;
18072;SDS011;9161;47.348;9.648;2023-12-20T23:00:32;3.00;;;1.50;;
18072;SDS011;9161;47.348;9.648;2023-12-20T23:05:35;4.53;;;1.40;;
18072;SDS011;9161;47.348;9.648;2023-12-20T23:10:39;3.33;;;1.47;;
18072;SDS011;9161;47.348;9.648;2023-12-20T23:15:41;4.00;;;1.80;;
18072;SDS011;9161;47.348;9.648;2023-12-20T23:20:43;3.53;;;1.70;;
18072;SDS011;9161;47.348;9.648;2023-12-20T23:25:48;3.53;;;1.50;;
18072;SDS011;9161;47.348;9.648;2023-12-20T23:30:52;3.97;;;1.50;;
18072;SDS011;9161;47.348;9.648;2023-12-20T23:35:55;2.17;;;1.53;;
18072;SDS011;9161;47.348;9.648;2023-12-20T23:40:59;6.43;;;1.47;;
18072;SDS011;9161;47.348;9.648;2023-12-20T23:46:02;4.03;;;1.60;;
18072;SDS011;9161;47.348;9.648;2023-12-20T23:51:05;2.17;;;1.50;;
18072;SDS011;9161;47.348;9.648;2023-12-20T23:56:11;2.87;;;1.67;;
